createdAt,value
2024-05-09T00:00:54.289Z,11.2
2024-05-09T00:02:03.438Z,11.2
2024-05-09T00:03:11.640Z,11.2
2024-05-09T00:04:20.802Z,11.2
2024-05-09T00:05:30.002Z,11.2
2024-05-09T00:06:39.220Z,11.2
2024-05-09T00:07:48.298Z,11.2
2024-05-09T00:08:57.689Z,11.2
2024-05-09T00:10:05.667Z,11.2
2024-05-09T00:11:14.088Z,11.2
2024-05-09T00:12:23.059Z,11.1
2024-05-09T00:13:32.488Z,11.1
2024-05-09T00:14:41.370Z,11.1
2024-05-09T00:15:50.760Z,11
2024-05-09T00:16:59.820Z,11
2024-05-09T00:18:08.923Z,11
2024-05-09T00:19:18.072Z,11
2024-05-09T00:20:27.242Z,11
2024-05-09T00:21:36.450Z,11
2024-05-09T00:22:45.577Z,10.9
2024-05-09T00:23:54.767Z,10.9
2024-05-09T00:25:03.929Z,10.9
2024-05-09T00:26:13.003Z,11
2024-05-09T00:27:21.370Z,10.9
2024-05-09T00:28:30.458Z,10.9
2024-05-09T00:29:39.636Z,10.9
2024-05-09T00:30:48.967Z,10.9
2024-05-09T00:31:57.995Z,10.8
2024-05-09T00:33:06.175Z,10.8
2024-05-09T00:34:14.362Z,10.8
2024-05-09T00:35:22.558Z,10.8
2024-05-09T00:36:31.757Z,10.8
2024-05-09T00:37:40.886Z,10.8
2024-05-09T00:38:50.087Z,10.8
2024-05-09T00:39:59.241Z,10.7
2024-05-09T00:41:08.456Z,10.7
2024-05-09T00:42:17.590Z,10.7
2024-05-09T00:43:26.765Z,10.8
2024-05-09T00:44:35.935Z,10.7
2024-05-09T00:45:45.146Z,10.7
2024-05-09T00:46:54.277Z,10.6
2024-05-09T00:48:03.458Z,10.6
2024-05-09T00:49:12.625Z,10.6
2024-05-09T00:50:20.815Z,10.6
2024-05-09T00:51:30.022Z,10.6
2024-05-09T00:52:39.265Z,10.6
2024-05-09T00:53:48.332Z,10.6
2024-05-09T00:54:57.498Z,10.6
2024-05-09T00:56:06.702Z,10.6
2024-05-09T00:57:14.867Z,10.6
2024-05-09T00:58:23.234Z,10.6
2024-05-09T00:59:32.228Z,10.6
2024-05-09T01:00:41.492Z,10.6
2024-05-09T01:01:50.599Z,10.5
2024-05-09T01:03:01.076Z,10.5
2024-05-09T01:04:08.932Z,10.5
2024-05-09T01:05:18.103Z,10.5
2024-05-09T01:06:27.255Z,10.5
2024-05-09T01:07:36.442Z,10.4
2024-05-09T01:08:45.645Z,10.5
2024-05-09T01:09:54.817Z,10.4
2024-05-09T01:11:04.080Z,10.4
2024-05-09T01:12:13.115Z,10.4
2024-05-09T01:13:21.308Z,10.4
2024-05-09T01:14:30.502Z,10.4
2024-05-09T01:15:39.693Z,10.4
2024-05-09T01:16:48.834Z,10.4
2024-05-09T01:17:57.997Z,10.4
2024-05-09T01:19:07.193Z,10.4
2024-05-09T01:20:15.374Z,10.3
2024-05-09T01:21:23.561Z,10.4
2024-05-09T01:22:31.762Z,10.3
2024-05-09T01:23:40.941Z,10.3
2024-05-09T01:24:50.093Z,10.3
2024-05-09T01:25:59.348Z,10.3
2024-05-09T01:27:08.443Z,10.2
2024-05-09T01:28:17.617Z,10.2
2024-05-09T01:29:26.788Z,10.2
2024-05-09T01:30:35.966Z,10.2
2024-05-09T01:31:45.128Z,10.2
2024-05-09T01:32:54.312Z,10.2
2024-05-09T01:34:03.510Z,10.2
2024-05-09T01:35:12.650Z,10.2
2024-05-09T01:36:21.876Z,10.2
2024-05-09T01:37:30.020Z,10.2
2024-05-09T01:38:39.188Z,10.2
2024-05-09T01:39:48.359Z,10.1
2024-05-09T01:40:57.523Z,10.1
2024-05-09T01:42:06.701Z,10.1
2024-05-09T01:43:15.866Z,10.2
2024-05-09T01:44:24.088Z,10.2
2024-05-09T01:45:32.286Z,10.1
2024-05-09T01:46:41.421Z,10.1
2024-05-09T01:47:50.615Z,10
2024-05-09T01:48:59.803Z,10
2024-05-09T01:50:08.947Z,10
2024-05-09T01:51:18.115Z,10.1
2024-05-09T01:52:27.288Z,10
2024-05-09T01:53:36.462Z,10
2024-05-09T01:54:45.686Z,10
2024-05-09T01:55:54.825Z,10
2024-05-09T01:57:03.991Z,10
2024-05-09T01:58:13.199Z,10
2024-05-09T01:59:22.340Z,10
2024-05-09T02:00:30.512Z,10
2024-05-09T02:01:39.694Z,9.9
2024-05-09T02:02:48.865Z,10
2024-05-09T02:03:58.035Z,10
2024-05-09T02:05:07.237Z,9.9
2024-05-09T02:06:16.379Z,9.9
2024-05-09T02:07:24.601Z,9.9
2024-05-09T02:08:33.755Z,9.9
2024-05-09T02:09:41.968Z,9.9
2024-05-09T02:10:51.110Z,9.9
2024-05-09T02:12:00.278Z,9.9
2024-05-09T02:13:09.462Z,9.9
2024-05-09T02:14:18.618Z,9.9
2024-05-09T02:15:27.796Z,9.9
2024-05-09T02:16:37.868Z,9.9
2024-05-09T02:17:46.142Z,9.9
2024-05-09T02:18:55.307Z,9.9
2024-05-09T02:20:04.512Z,9.8
2024-05-09T02:21:13.660Z,9.8
2024-05-09T02:22:22.827Z,9.8
2024-05-09T02:23:32.014Z,9.8
2024-05-09T02:24:40.231Z,9.7
2024-05-09T02:25:49.389Z,9.8
2024-05-09T02:26:58.543Z,9.7
2024-05-09T02:28:07.786Z,9.7
2024-05-09T02:29:16.878Z,9.7
2024-05-09T02:30:26.081Z,9.8
2024-05-09T02:31:35.244Z,9.7
2024-05-09T02:32:44.406Z,9.7
2024-05-09T02:33:53.574Z,9.7
2024-05-09T02:35:02.755Z,9.7
2024-05-09T02:36:11.949Z,9.7
2024-05-09T02:37:21.088Z,9.7
2024-05-09T02:38:30.304Z,9.8
2024-05-09T02:39:38.490Z,9.8
2024-05-09T02:40:47.633Z,9.7
2024-05-09T02:41:56.846Z,9.7
2024-05-09T02:43:05.978Z,9.7
2024-05-09T02:44:15.161Z,9.7
2024-05-09T02:45:24.322Z,9.6
2024-05-09T02:46:33.488Z,9.6
2024-05-09T02:47:42.664Z,9.5
2024-05-09T02:48:51.872Z,9.5
2024-05-09T02:50:01.014Z,9.5
2024-05-09T02:51:10.185Z,9.6
2024-05-09T02:52:19.353Z,9.6
2024-05-09T02:53:28.538Z,9.6
2024-05-09T02:54:36.719Z,9.6
2024-05-09T02:55:45.992Z,9.6
2024-05-09T02:56:55.093Z,9.6
2024-05-09T03:00:22.583Z,9.6
2024-05-09T03:01:31.823Z,9.6
2024-05-09T03:02:40.975Z,9.6
2024-05-09T03:03:50.193Z,9.5
2024-05-09T03:04:59.266Z,9.5
2024-05-09T03:06:08.532Z,9.5
2024-05-09T03:07:17.656Z,9.4
2024-05-09T03:08:26.779Z,9.4
2024-05-09T03:09:35.008Z,9.3
2024-05-09T03:10:44.188Z,9.4
2024-05-09T03:11:53.373Z,9.4
2024-05-09T03:13:02.492Z,9.4
2024-05-09T03:14:11.671Z,9.4
2024-05-09T03:15:20.862Z,9.4
2024-05-09T03:16:30.027Z,9.4
2024-05-09T03:17:39.196Z,9.4
2024-05-09T03:18:48.355Z,9.4
2024-05-09T03:19:57.562Z,9.5
2024-05-09T03:21:06.690Z,9.5
2024-05-09T03:22:15.883Z,9.5
2024-05-09T03:23:24.071Z,9.4
2024-05-09T03:24:33.230Z,9.4
2024-05-09T03:25:42.438Z,9.4
2024-05-09T03:26:51.593Z,9.4
2024-05-09T03:28:00.961Z,9.4
2024-05-09T03:29:09.972Z,9.4
2024-05-09T03:30:19.101Z,9.4
2024-05-09T03:31:28.323Z,9.4
2024-05-09T03:32:36.498Z,9.4
2024-05-09T03:33:44.678Z,9.4
2024-05-09T03:34:53.838Z,9.4
2024-05-09T03:36:02.023Z,9.4
2024-05-09T03:37:11.201Z,9.4
2024-05-09T03:38:20.368Z,9.3
2024-05-09T03:39:29.607Z,9.3
2024-05-09T03:40:38.711Z,9.3
2024-05-09T03:41:47.881Z,9.3
2024-05-09T03:42:57.105Z,9.3
2024-05-09T03:44:06.231Z,9.3
2024-05-09T03:45:15.414Z,9.3
2024-05-09T03:46:24.579Z,9.3
2024-05-09T03:47:33.759Z,9.3
2024-05-09T03:48:42.958Z,9.3
2024-05-09T03:49:52.102Z,9.3
2024-05-09T03:51:00.343Z,9.3
2024-05-09T03:52:09.467Z,9.3
2024-05-09T03:53:18.665Z,9.3
2024-05-09T03:54:27.805Z,9.3
2024-05-09T03:55:36.999Z,9.3
2024-05-09T03:56:45.169Z,9.2
2024-05-09T03:57:53.366Z,9.2
2024-05-09T03:59:02.530Z,9.2
2024-05-09T04:00:11.775Z,9.2
2024-05-09T04:01:20.983Z,9.2
2024-05-09T04:02:30.074Z,9.2
2024-05-09T04:03:39.238Z,9.2
2024-05-09T04:04:49.138Z,9.3
2024-05-09T04:05:57.568Z,9.3
2024-05-09T04:07:06.740Z,9.3
2024-05-09T04:08:15.946Z,9.3
2024-05-09T04:09:25.092Z,9.3
2024-05-09T04:10:34.287Z,9.3
2024-05-09T04:11:43.434Z,9.3
2024-05-09T04:12:51.627Z,9.3
2024-05-09T04:14:00.805Z,9.3
2024-05-09T04:15:09.986Z,9.2
2024-05-09T04:16:19.146Z,9.2
2024-05-09T04:17:28.316Z,9.2
2024-05-09T04:18:37.498Z,9.2
2024-05-09T04:19:45.701Z,9.2
2024-05-09T04:20:53.870Z,9.2
2024-05-09T04:22:03.043Z,9.3
2024-05-09T04:23:12.207Z,9.3
2024-05-09T04:24:21.383Z,9.3
2024-05-09T04:25:30.561Z,9.4
2024-05-09T04:26:39.728Z,9.4
2024-05-09T04:27:48.939Z,9.5
2024-05-09T04:28:58.093Z,9.5
2024-05-09T04:30:07.238Z,9.5
2024-05-09T04:31:16.431Z,9.5
2024-05-09T04:32:25.587Z,9.6
2024-05-09T04:33:34.766Z,9.6
2024-05-09T04:34:43.956Z,9.5
2024-05-09T04:35:52.239Z,9.5
2024-05-09T04:37:01.333Z,9.5
2024-05-09T04:38:10.464Z,9.5
2024-05-09T04:39:19.641Z,9.5
2024-05-09T04:40:28.846Z,9.6
2024-05-09T04:41:37.979Z,9.6
2024-05-09T04:42:46.215Z,9.7
2024-05-09T04:43:54.391Z,9.6
2024-05-09T04:45:03.565Z,9.6
2024-05-09T04:46:11.735Z,9.7
2024-05-09T04:47:20.920Z,9.7
2024-05-09T04:48:30.093Z,9.7
2024-05-09T04:49:39.254Z,9.8
2024-05-09T04:50:48.469Z,9.9
2024-05-09T04:51:57.602Z,10
2024-05-09T04:53:06.797Z,10
2024-05-09T04:54:15.966Z,10.1
2024-05-09T04:55:25.126Z,10.2
2024-05-09T04:56:34.291Z,10.4
2024-05-09T04:57:43.462Z,10.5
2024-05-09T04:58:52.684Z,10.7
2024-05-09T05:00:01.827Z,10.8
2024-05-09T05:01:11.002Z,10.8
2024-05-09T05:02:19.159Z,10.8
2024-05-09T05:03:28.331Z,10.7
2024-05-09T05:04:37.533Z,10.7
2024-05-09T05:05:46.743Z,10.8
2024-05-09T05:06:54.908Z,10.9
2024-05-09T05:08:03.071Z,10.9
2024-05-09T05:09:12.248Z,11
2024-05-09T05:10:21.430Z,11
2024-05-09T05:11:30.588Z,11.1
2024-05-09T05:12:39.795Z,11.1
2024-05-09T05:13:48.966Z,11
2024-05-09T05:14:58.115Z,11
2024-05-09T05:16:07.284Z,11
2024-05-09T05:17:16.466Z,11
2024-05-09T05:18:26.071Z,11.1
2024-05-09T05:19:34.880Z,11.1
2024-05-09T05:20:43.971Z,11.1
2024-05-09T05:21:53.172Z,11.2
2024-05-09T05:23:01.331Z,11.3
2024-05-09T05:24:10.492Z,11.4
2024-05-09T05:25:19.673Z,11.5
2024-05-09T05:26:28.844Z,11.5
2024-05-09T05:27:38.014Z,11.9
2024-05-09T05:28:47.187Z,12.2
2024-05-09T05:29:56.351Z,12.2
2024-05-09T05:31:05.551Z,12.2
2024-05-09T05:32:14.730Z,12.3
2024-05-09T05:33:23.913Z,12.5
2024-05-09T05:34:33.051Z,12.5
2024-05-09T05:35:42.231Z,12.5
2024-05-09T05:36:51.388Z,12.6
2024-05-09T05:37:59.588Z,12.7
2024-05-09T05:39:08.754Z,13.2
2024-05-09T05:40:17.928Z,13.7
2024-05-09T05:41:27.142Z,14.2
2024-05-09T05:42:36.286Z,14.5
2024-05-09T05:43:45.451Z,14.7
2024-05-09T05:44:54.625Z,14.6
2024-05-09T05:46:03.807Z,14.5
2024-05-09T05:47:12.983Z,14.3
2024-05-09T05:48:22.137Z,14.3
2024-05-09T05:49:31.323Z,14.3
2024-05-09T05:50:40.562Z,14.4
2024-05-09T05:51:49.685Z,14.4
2024-05-09T05:52:57.843Z,14.6
2024-05-09T05:54:07.968Z,14.9
2024-05-09T05:55:16.182Z,14.8
2024-05-09T05:56:25.373Z,14.6
2024-05-09T05:57:34.540Z,14.6
2024-05-09T05:58:43.694Z,14.6
2024-05-09T05:59:52.955Z,14.7
2024-05-09T06:01:02.048Z,14.5
2024-05-09T06:02:11.223Z,14.5
2024-05-09T06:03:20.475Z,14.5
2024-05-09T06:04:29.561Z,14.8
2024-05-09T06:05:38.749Z,15.1
2024-05-09T06:06:47.945Z,15.6
2024-05-09T06:07:56.165Z,15.9
2024-05-09T06:09:04.331Z,16.2
2024-05-09T06:10:12.505Z,16.2
2024-05-09T06:11:21.657Z,16.8
2024-05-09T06:12:30.821Z,17
2024-05-09T06:13:39.992Z,17.1
2024-05-09T06:14:49.169Z,16.7
2024-05-09T06:15:58.343Z,16.6
2024-05-09T06:17:07.537Z,16.2
2024-05-09T06:18:16.678Z,16.2
2024-05-09T06:19:25.851Z,15.9
2024-05-09T06:20:35.046Z,16.1
2024-05-09T06:21:44.198Z,16.3
2024-05-09T06:22:53.366Z,16.8
2024-05-09T06:24:02.575Z,17.1
2024-05-09T06:25:10.726Z,16.9
2024-05-09T06:26:19.914Z,16.8
2024-05-09T06:27:29.077Z,17.2
2024-05-09T06:28:38.275Z,17.5
2024-05-09T06:29:47.961Z,17.2
2024-05-09T06:30:56.604Z,17.3
2024-05-09T06:32:05.761Z,17.5
2024-05-09T06:33:15.042Z,17.8
2024-05-09T06:34:24.097Z,17.3
2024-05-09T06:35:33.292Z,17.5
2024-05-09T06:36:42.472Z,17.6
2024-05-09T06:37:51.625Z,17.7
2024-05-09T06:39:00.910Z,17.7
2024-05-09T06:40:09.003Z,17.3
2024-05-09T06:41:18.398Z,17.1
2024-05-09T06:42:27.342Z,17.4
2024-05-09T06:43:35.754Z,17.9
2024-05-09T06:44:43.757Z,18.4
2024-05-09T06:45:53.021Z,18.7
2024-05-09T06:47:02.168Z,19
2024-05-09T06:48:11.247Z,19.1
2024-05-09T06:49:20.521Z,19.3
2024-05-09T06:50:29.565Z,18.9
2024-05-09T06:51:38.747Z,18.1
2024-05-09T06:52:47.972Z,17.9
2024-05-09T06:53:57.117Z,17.6
2024-05-09T06:55:06.365Z,17.8
2024-05-09T06:56:15.454Z,18.3
2024-05-09T06:57:24.653Z,18.9
2024-05-09T06:58:33.967Z,19.4
2024-05-09T06:59:41.966Z,19.2
2024-05-09T07:00:51.255Z,18.6
2024-05-09T07:02:00.446Z,18.3
2024-05-09T07:03:09.482Z,18.4
2024-05-09T07:04:18.707Z,18.8
2024-05-09T07:05:27.827Z,18.8
2024-05-09T07:06:36.999Z,18.5
2024-05-09T07:07:46.201Z,18.1
2024-05-09T07:08:55.610Z,17.9
2024-05-09T07:10:04.605Z,18.1
2024-05-09T07:11:13.985Z,18.7
2024-05-09T07:12:22.877Z,19.1
2024-05-09T07:13:32.282Z,19.1
2024-05-09T07:14:40.410Z,18.1
2024-05-09T07:15:49.427Z,17.7
2024-05-09T07:16:58.567Z,17.8
2024-05-09T07:19:17.110Z,18.3
2024-05-09T07:20:26.077Z,18.7
2024-05-09T07:21:35.257Z,18.8
2024-05-09T07:22:44.517Z,18.6
2024-05-09T07:23:53.646Z,18.4
2024-05-09T07:25:02.779Z,18
2024-05-09T07:26:11.952Z,18.1
2024-05-09T07:27:21.198Z,18.3
2024-05-09T07:28:30.302Z,18.6
2024-05-09T07:29:38.502Z,18.6
2024-05-09T07:30:47.740Z,18.9
2024-05-09T07:31:56.829Z,19.2
2024-05-09T07:33:06.036Z,19.4
2024-05-09T07:34:15.191Z,19
2024-05-09T07:35:23.378Z,18.6
2024-05-09T07:36:31.574Z,18.4
2024-05-09T07:37:39.760Z,18.1
2024-05-09T07:38:48.928Z,17.8
2024-05-09T07:39:58.124Z,17.9
2024-05-09T07:41:07.273Z,18.4
2024-05-09T07:42:16.435Z,18.5
2024-05-09T07:43:25.630Z,18.1
2024-05-09T07:44:34.871Z,17.9
2024-05-09T07:45:43.931Z,18
2024-05-09T07:46:53.142Z,18.1
2024-05-09T07:48:02.290Z,17.9
2024-05-09T07:49:11.479Z,18.7
2024-05-09T07:50:20.646Z,18.9
2024-05-09T07:51:29.808Z,19.3
2024-05-09T07:52:38.002Z,19.3
2024-05-09T07:53:47.235Z,19.4
2024-05-09T07:54:56.353Z,19.3
2024-05-09T07:56:05.536Z,19.6
2024-05-09T07:57:14.700Z,20.1
2024-05-09T07:58:23.866Z,19.6
2024-05-09T07:59:32.062Z,19.8
2024-05-09T08:00:40.250Z,20
2024-05-09T08:01:49.514Z,19.7
2024-05-09T08:02:58.597Z,19.4
2024-05-09T08:04:07.770Z,19.4
2024-05-09T08:05:16.983Z,19.5
2024-05-09T08:06:26.308Z,19.7
2024-05-09T08:07:35.298Z,19.8
2024-05-09T08:08:44.475Z,19.8
2024-05-09T08:09:53.635Z,19.3
2024-05-09T08:11:02.840Z,19.1
2024-05-09T08:12:11.974Z,19.1
2024-05-09T08:13:21.153Z,19.6
2024-05-09T08:14:30.301Z,20
2024-05-09T08:15:38.500Z,19.7
2024-05-09T08:16:47.659Z,19.8
2024-05-09T08:17:56.844Z,19.7
2024-05-09T08:19:06.983Z,19.2
2024-05-09T08:20:15.176Z,18.9
2024-05-09T08:21:24.348Z,18.3
2024-05-09T08:22:33.525Z,18.4
2024-05-09T08:23:42.686Z,18.4
2024-05-09T08:24:51.850Z,18.5
2024-05-09T08:26:01.066Z,18.6
2024-05-09T08:27:10.218Z,18.9
2024-05-09T08:28:19.377Z,19
2024-05-09T08:29:28.555Z,19.4
2024-05-09T08:30:36.734Z,19.5
2024-05-09T08:31:45.911Z,19.4
2024-05-09T08:32:55.122Z,19.4
2024-05-09T08:34:04.253Z,19.9
2024-05-09T08:35:13.480Z,19.4
2024-05-09T08:36:22.655Z,19.2
2024-05-09T08:37:31.765Z,18.8
2024-05-09T08:38:40.948Z,19.1
2024-05-09T08:39:50.389Z,19.7
2024-05-09T08:42:08.598Z,20.1
2024-05-09T08:43:17.994Z,20.4
2024-05-09T08:44:27.100Z,20.4
2024-05-09T08:45:34.990Z,20.6
2024-05-09T08:46:44.157Z,19.9
2024-05-09T08:47:53.444Z,19.7
2024-05-09T08:49:02.549Z,19.4
2024-05-09T08:50:11.684Z,19.3
2024-05-09T08:51:21.109Z,19.3
2024-05-09T08:52:30.023Z,19.5
2024-05-09T08:53:39.209Z,19.5
2024-05-09T08:54:48.988Z,19.4
2024-05-09T08:55:57.732Z,19.7
2024-05-09T08:57:06.710Z,19.4
2024-05-09T08:58:15.921Z,19.2
2024-05-09T08:59:25.092Z,19.2
2024-05-09T09:00:33.248Z,19.4
2024-05-09T09:01:42.563Z,19.1
2024-05-09T09:02:51.572Z,19
2024-05-09T09:03:59.864Z,19.8
2024-05-09T09:05:07.989Z,20.3
2024-05-09T09:06:16.233Z,20.7
2024-05-09T09:07:25.361Z,21
2024-05-09T09:08:34.603Z,21.3
2024-05-09T09:09:43.707Z,21
2024-05-09T09:10:52.949Z,21.2
2024-05-09T09:12:02.072Z,21.6
2024-05-09T09:13:11.231Z,21.5
2024-05-09T09:14:20.418Z,20.8
2024-05-09T09:15:29.537Z,20.1
2024-05-09T09:16:38.775Z,20.3
2024-05-09T09:17:47.905Z,20.4
2024-05-09T09:18:57.095Z,20.3
2024-05-09T09:20:06.244Z,20.2
2024-05-09T09:21:15.438Z,19.5
2024-05-09T09:22:23.690Z,19.9
2024-05-09T09:23:32.776Z,20.6
2024-05-09T09:24:41.929Z,21.2
2024-05-09T09:25:51.106Z,21.7
2024-05-09T09:27:00.322Z,21.5
2024-05-09T09:28:09.491Z,21
2024-05-09T09:29:18.736Z,21.2
2024-05-09T09:30:27.786Z,21.6
2024-05-09T09:31:37.115Z,21.7
2024-05-09T09:32:46.161Z,20.8
2024-05-09T09:33:55.426Z,20.6
2024-05-09T09:35:04.596Z,20.7
2024-05-09T09:36:13.674Z,20.6
2024-05-09T09:37:21.829Z,20.5
2024-05-09T09:38:31.034Z,20.1
2024-05-09T09:39:39.212Z,19.9
2024-05-09T09:40:47.406Z,20.4
2024-05-09T09:41:56.638Z,21.1
2024-05-09T09:43:05.737Z,21.4
2024-05-09T09:44:14.957Z,21.5
2024-05-09T09:45:24.093Z,21.6
2024-05-09T09:46:33.293Z,21.6
2024-05-09T09:47:42.423Z,21.9
2024-05-09T09:48:51.657Z,22.2
2024-05-09T09:50:00.781Z,22.3
2024-05-09T09:51:10.020Z,21.6
2024-05-09T09:52:19.130Z,21
2024-05-09T09:53:28.311Z,21
2024-05-09T09:54:37.464Z,20.8
2024-05-09T09:55:45.689Z,20.8
2024-05-09T09:56:54.842Z,21.1
2024-05-09T09:58:04.009Z,20.9
2024-05-09T09:59:13.186Z,20.5
2024-05-09T10:00:22.343Z,20.6
2024-05-09T10:01:31.582Z,20.9
2024-05-09T10:02:40.681Z,21.6
2024-05-09T10:03:49.857Z,21.8
2024-05-09T10:04:59.048Z,21.9
2024-05-09T10:06:08.230Z,21.6
2024-05-09T10:07:17.436Z,21.8
2024-05-09T10:08:26.578Z,21.9
2024-05-09T10:09:35.757Z,21.2
2024-05-09T10:11:53.117Z,21.2
2024-05-09T10:13:01.285Z,20.2
2024-05-09T10:14:09.506Z,20.5
2024-05-09T10:15:17.653Z,21.2
2024-05-09T10:16:26.850Z,21
2024-05-09T10:17:36.039Z,21.2
2024-05-09T10:18:45.253Z,21.3
2024-05-09T10:19:54.409Z,20.7
2024-05-09T10:21:03.649Z,20.3
2024-05-09T10:22:12.728Z,19.7
2024-05-09T10:23:21.880Z,19.6
2024-05-09T10:24:31.142Z,19.7
2024-05-09T10:25:40.252Z,20.3
2024-05-09T10:26:49.653Z,21.1
2024-05-09T10:27:58.914Z,21.5
2024-05-09T10:29:07.794Z,21.2
2024-05-09T10:30:15.981Z,21.6
2024-05-09T10:31:25.235Z,21.8
2024-05-09T10:32:34.375Z,20.9
2024-05-09T10:33:43.446Z,20.4
2024-05-09T10:34:52.665Z,20.9
2024-05-09T10:36:01.774Z,21.5
2024-05-09T10:37:10.959Z,21.4
2024-05-09T10:38:20.109Z,20.7
2024-05-09T10:39:29.428Z,20.9
2024-05-09T10:40:38.510Z,21.2
2024-05-09T10:41:46.691Z,21.2
2024-05-09T10:42:54.850Z,21.8
2024-05-09T10:44:04.169Z,22.2
2024-05-09T10:45:13.193Z,22
2024-05-09T10:46:22.457Z,21.5
2024-05-09T10:47:31.530Z,22.1
2024-05-09T10:48:40.704Z,22.2
2024-05-09T10:49:49.877Z,22.1
2024-05-09T10:50:59.060Z,21.9
2024-05-09T10:52:08.215Z,21.6
2024-05-09T10:53:17.423Z,21.8
2024-05-09T10:54:26.572Z,21.2
2024-05-09T10:55:35.743Z,21.2
2024-05-09T10:56:44.933Z,21.5
2024-05-09T10:57:53.098Z,21.4
2024-05-09T10:59:02.358Z,21.5
2024-05-09T11:00:11.485Z,21.7
2024-05-09T11:01:20.627Z,22
2024-05-09T11:02:29.817Z,22.1
2024-05-09T11:03:39.023Z,22.4
2024-05-09T11:04:47.169Z,22.5
2024-05-09T11:05:55.379Z,22.1
2024-05-09T11:07:03.579Z,22.4
2024-05-09T11:08:12.758Z,22.3
2024-05-09T11:09:21.885Z,22.5
2024-05-09T11:10:31.064Z,23
2024-05-09T11:11:40.238Z,22.2
2024-05-09T11:12:49.446Z,21.4
2024-05-09T11:13:58.629Z,21.2
2024-05-09T11:15:07.885Z,20.9
2024-05-09T11:16:16.925Z,20.5
2024-05-09T11:17:26.117Z,20.4
2024-05-09T11:18:35.304Z,20.4
2024-05-09T11:19:44.456Z,20.3
2024-05-09T11:20:53.626Z,20.5
2024-05-09T11:22:02.069Z,20.4
2024-05-09T11:23:11.009Z,20.5
2024-05-09T11:24:20.170Z,21.2
2024-05-09T11:25:29.315Z,22.2
2024-05-09T11:26:38.490Z,22.3
2024-05-09T11:27:47.706Z,22.4
2024-05-09T11:28:55.870Z,23.3
2024-05-09T11:30:04.038Z,23.2
2024-05-09T11:31:13.211Z,22.6
2024-05-09T11:32:22.404Z,21.5
2024-05-09T11:33:31.558Z,20.8
2024-05-09T11:34:40.750Z,20.6
2024-05-09T11:35:49.931Z,21.2
2024-05-09T11:36:59.099Z,22.3
2024-05-09T11:38:08.401Z,23.1
2024-05-09T11:39:17.446Z,22.9
2024-05-09T11:40:26.629Z,22.6
2024-05-09T11:41:35.795Z,22.6
2024-05-09T11:42:44.959Z,22.9
2024-05-09T11:43:54.104Z,23.3
2024-05-09T11:45:02.301Z,23.3
2024-05-09T11:46:11.493Z,23.3
2024-05-09T11:47:20.642Z,23.7
2024-05-09T11:48:29.819Z,24.8
2024-05-09T11:49:38.996Z,25.5
2024-05-09T11:50:48.164Z,24.9
2024-05-09T11:51:56.372Z,24.8
2024-05-09T11:53:04.695Z,25
2024-05-09T11:54:12.812Z,24.2
2024-05-09T11:55:21.908Z,22.9
2024-05-09T11:56:31.106Z,22.3
2024-05-09T11:57:40.268Z,22.4
2024-05-09T11:58:50.010Z,21.7
2024-05-09T11:59:58.676Z,21.7
2024-05-09T12:01:07.765Z,22
2024-05-09T12:02:16.961Z,21.6
2024-05-09T12:03:26.178Z,21.7
2024-05-09T12:04:35.291Z,22.6
2024-05-09T12:05:44.480Z,23.3
2024-05-09T12:06:53.630Z,23.5
2024-05-09T12:08:02.810Z,23.6
2024-05-09T12:09:11.009Z,24.1
2024-05-09T12:10:20.210Z,23.8
2024-05-09T12:11:29.365Z,22.3
2024-05-09T12:12:38.517Z,21.9
2024-05-09T12:13:47.682Z,21.6
2024-05-09T12:14:56.863Z,21.7
2024-05-09T12:16:06.032Z,22.7
2024-05-09T12:17:15.228Z,22.9
2024-05-09T12:18:24.400Z,23.6
2024-05-09T12:19:33.547Z,23.4
2024-05-09T12:20:42.770Z,23.8
2024-05-09T12:21:51.924Z,23.5
2024-05-09T12:23:01.076Z,23.2
2024-05-09T12:24:09.251Z,22.2
2024-05-09T12:25:17.447Z,21.9
2024-05-09T12:26:25.679Z,21.9
2024-05-09T12:27:34.809Z,21.8
2024-05-09T12:28:43.987Z,21.7
2024-05-09T12:29:53.207Z,22
2024-05-09T12:31:02.466Z,22.1
2024-05-09T12:32:11.503Z,22.2
2024-05-09T12:33:20.752Z,22.7
2024-05-09T12:34:29.856Z,23.4
2024-05-09T12:35:39.004Z,23.8
2024-05-09T12:36:48.212Z,24.4
2024-05-09T12:37:57.371Z,24.3
2024-05-09T12:39:06.568Z,24.6
2024-05-09T12:40:15.700Z,24.5
2024-05-09T12:41:23.888Z,24.3
2024-05-09T12:42:33.060Z,24.4
2024-05-09T12:43:42.223Z,25.2
2024-05-09T12:44:51.407Z,25.8
2024-05-09T12:46:00.679Z,25.6
2024-05-09T12:48:19.122Z,23.1
2024-05-09T12:49:28.143Z,23.6
2024-05-09T12:50:36.284Z,23.6
2024-05-09T12:51:44.473Z,23.7
2024-05-09T12:52:53.686Z,23.2
2024-05-09T12:54:02.906Z,23.5
2024-05-09T12:55:12.129Z,24.6
2024-05-09T12:56:21.260Z,25.1
2024-05-09T12:57:30.640Z,24.8
2024-05-09T12:58:39.595Z,24.4
2024-05-09T12:59:48.735Z,24.3
2024-05-09T13:00:57.856Z,24.3
2024-05-09T13:02:07.252Z,24
2024-05-09T13:03:16.238Z,24.1
2024-05-09T13:04:25.621Z,0
2024-05-09T13:05:34.543Z,0
2024-05-09T13:06:42.751Z,0
2024-05-09T13:07:51.908Z,0
2024-05-09T13:09:01.233Z,0
2024-05-09T13:10:10.252Z,0
2024-05-09T13:11:20.194Z,0
2024-05-09T13:12:28.601Z,0
2024-05-09T13:13:36.801Z,0
2024-05-09T13:14:45.016Z,0
2024-05-09T13:15:53.352Z,0
2024-05-09T13:17:02.382Z,0
2024-05-09T13:18:11.513Z,0
2024-05-09T13:19:20.691Z,0
2024-05-09T13:20:29.942Z,0
2024-05-09T13:21:39.023Z,0
2024-05-09T13:22:48.226Z,0
2024-05-09T13:23:57.363Z,24.1
2024-05-09T13:25:06.535Z,24
2024-05-09T13:26:15.713Z,23.7
2024-05-09T13:27:24.884Z,23.9
2024-05-09T13:28:34.078Z,23.6
2024-05-09T13:29:43.222Z,22.9
2024-05-09T13:30:51.418Z,22.5
2024-05-09T13:32:00.576Z,23.1
2024-05-09T13:33:09.771Z,23.5
2024-05-09T13:34:18.926Z,23.4
2024-05-09T13:35:28.109Z,23.6
2024-05-09T13:36:37.270Z,24.5
2024-05-09T13:37:46.483Z,24.1
2024-05-09T13:38:55.627Z,23.7
2024-05-09T13:40:04.791Z,23.5
2024-05-09T13:41:14.072Z,23.7
2024-05-09T13:42:23.136Z,24.2
2024-05-09T13:43:32.317Z,24.8
2024-05-09T13:44:41.482Z,25
2024-05-09T13:45:49.856Z,25.2
2024-05-09T13:46:58.865Z,25.5
2024-05-09T13:48:09.295Z,25.3
2024-05-09T13:49:17.265Z,25.3
2024-05-09T13:50:26.347Z,24.8
2024-05-09T13:51:35.531Z,24.6
2024-05-09T13:52:44.715Z,24.4
2024-05-09T13:53:52.929Z,24.2
2024-05-09T13:55:01.116Z,24.5
2024-05-09T13:56:10.308Z,24.3
2024-05-09T13:57:19.434Z,25.3
2024-05-09T13:58:28.601Z,25.1
2024-05-09T13:59:37.803Z,24.6
2024-05-09T14:00:47.078Z,25.1
2024-05-09T14:01:56.124Z,25.7
2024-05-09T14:03:05.289Z,24.8
2024-05-09T14:04:14.576Z,24.1
2024-05-09T14:06:32.804Z,24.1
2024-05-09T14:07:42.071Z,24.1
2024-05-09T14:08:51.243Z,23.5
2024-05-09T14:09:59.405Z,23.6
2024-05-09T14:11:08.683Z,23.3
2024-05-09T14:12:17.684Z,22.9
2024-05-09T14:13:26.888Z,22.6
2024-05-09T14:14:36.065Z,22.8
2024-05-09T14:15:45.342Z,22.9
2024-05-09T14:16:54.412Z,23.2
2024-05-09T14:18:03.588Z,23.5
2024-05-09T14:19:12.926Z,23.8
2024-05-09T14:20:21.900Z,24.4
2024-05-09T14:21:31.136Z,24.3
2024-05-09T14:22:40.247Z,0
2024-05-09T14:23:50.217Z,0
2024-05-09T14:24:57.634Z,0
2024-05-09T14:26:06.790Z,0
2024-05-09T14:27:15.937Z,0
2024-05-09T14:28:25.230Z,0
2024-05-09T14:29:34.297Z,0
2024-05-09T14:30:43.522Z,0
2024-05-09T14:31:52.708Z,0
2024-05-09T14:33:01.859Z,0
2024-05-09T14:34:11.008Z,0
2024-05-09T14:35:20.166Z,0
2024-05-09T14:36:28.546Z,0
2024-05-09T14:37:36.541Z,0
2024-05-09T14:38:45.698Z,0
2024-05-09T14:39:54.898Z,0
2024-05-09T14:41:04.056Z,0
2024-05-09T14:42:13.212Z,0
2024-05-09T14:43:22.379Z,0
2024-05-09T14:44:31.541Z,0
2024-05-09T14:45:40.788Z,0
2024-05-09T14:46:49.896Z,0
2024-05-09T14:47:59.058Z,0
2024-05-09T14:49:08.243Z,0
2024-05-09T14:50:17.408Z,0
2024-05-09T14:51:26.639Z,0
2024-05-09T14:52:34.768Z,24.3
2024-05-09T14:53:43.955Z,24.5
2024-05-09T14:54:53.136Z,24
2024-05-09T14:56:02.445Z,23.9
2024-05-09T14:57:10.487Z,23.8
2024-05-09T14:58:19.722Z,23.8
2024-05-09T14:59:28.825Z,23.7
2024-05-09T15:00:38.058Z,23.6
2024-05-09T15:01:47.173Z,23.5
2024-05-09T15:02:56.362Z,23.6
2024-05-09T15:04:05.564Z,23.7
2024-05-09T15:05:14.684Z,23.3
2024-05-09T15:06:24.074Z,23.3
2024-05-09T15:07:33.008Z,23.3
2024-05-09T15:08:42.239Z,23.5
2024-05-09T15:09:51.442Z,23.5
2024-05-09T15:11:00.607Z,22.9
2024-05-09T15:12:08.820Z,22.1
2024-05-09T15:13:18.042Z,21.8
2024-05-09T15:14:27.101Z,21.8
2024-05-09T15:15:36.293Z,22.3
2024-05-09T15:16:45.450Z,22.8
2024-05-09T15:17:54.580Z,23.3
2024-05-09T15:19:03.787Z,23.4
2024-05-09T15:20:12.968Z,23.7
2024-05-09T15:21:22.235Z,24
2024-05-09T15:22:31.338Z,23.9
2024-05-09T15:23:40.497Z,23.5
2024-05-09T15:25:58.820Z,23.7
2024-05-09T15:27:06.996Z,23.9
2024-05-09T15:28:16.192Z,24.2
2024-05-09T15:29:25.334Z,24.4
2024-05-09T15:30:34.531Z,24.2
2024-05-09T15:31:43.690Z,24
2024-05-09T15:32:52.879Z,23.5
2024-05-09T15:34:02.074Z,23.4
2024-05-09T15:36:20.375Z,23.6
2024-05-09T15:37:29.532Z,23.7
2024-05-09T15:38:38.713Z,24.1
2024-05-09T15:39:47.935Z,24.4
2024-05-09T15:40:57.171Z,24.2
2024-05-09T15:42:05.413Z,23.8
2024-05-09T15:43:13.562Z,23.2
2024-05-09T15:44:21.632Z,23.3